Time;durP1;ratioP1;P1;durP2;ratioP2;P2;SDS_P1;SDS_P2;PMS_P1;PMS_P2;Temp;Humidity;BMP_temperature;BMP_pressure;BME280_temperature;BME280_humidity;BME280_pressure;Samples;Min_cycle;Max_cycle;Signal;HPM_P1;HPM_P2
2023/04/15 00:01:21;;;;;;;5.90;1.65;;;19.30;58.20;;;;;;5083934;28;20193;-56
2023/04/15 00:03:53;;;;;;;4.25;2.05;;;19.40;58.30;;;;;;5088231;28;20217;-57
2023/04/15 00:06:26;;;;;;;2.17;1.45;;;19.40;58.30;;;;;;5090758;28;20201;-57
2023/04/15 00:08:57;;;;;;;2.67;1.67;;;19.40;58.30;;;;;;5070628;28;20203;-57
2023/04/15 00:11:27;;;;;;;3.50;1.55;;;19.40;58.30;;;;;;5079766;28;20238;-58
2023/04/15 00:13:58;;;;;;;4.10;2.08;;;19.40;58.30;;;;;;5069442;28;20219;-57
2023/04/15 00:16:29;;;;;;;4.10;2.10;;;19.40;58.30;;;;;;5083714;28;20655;-58
2023/04/15 00:18:59;;;;;;;3.63;1.67;;;19.40;58.30;;;;;;5090758;28;20240;-57
2023/04/15 00:21:32;;;;;;;3.22;2.08;;;19.40;59.00;;;;;;5090914;28;20190;-57
2023/04/15 00:24:02;;;;;;;3.38;1.65;;;19.50;58.50;;;;;;5090591;28;21302;-54
2023/04/15 00:26:34;;;;;;;2.92;1.67;;;19.40;58.40;;;;;;5090888;28;20196;-57
2023/04/15 00:29:05;;;;;;;3.92;1.73;;;19.50;58.70;;;;;;5090911;28;20686;-58
2023/04/15 00:31:35;;;;;;;3.78;1.67;;;19.50;58.70;;;;;;5091120;28;20218;-57
2023/04/15 00:34:06;;;;;;;3.55;2.00;;;19.50;58.80;;;;;;5089774;28;20210;-57
2023/04/15 00:36:38;;;;;;;3.17;2.10;;;19.60;58.70;;;;;;5090451;28;20193;-57
2023/04/15 00:39:09;;;;;;;3.97;1.75;;;19.60;58.70;;;;;;5090607;28;20202;-58
2023/04/15 00:41:40;;;;;;;3.45;1.90;;;19.60;58.70;;;;;;5091111;28;20783;-58
2023/04/15 00:44:10;;;;;;;3.45;1.60;;;19.60;58.70;;;;;;5090546;28;20226;-58
2023/04/15 00:46:43;;;;;;;2.25;1.45;;;19.60;58.60;;;;;;5076294;28;20203;-57
2023/04/15 00:49:14;;;;;;;3.67;1.40;;;19.60;58.60;;;;;;5070626;28;20253;-58
2023/04/15 00:51:46;;;;;;;2.92;1.60;;;19.70;58.60;;;;;;5070754;28;20714;-57
2023/04/15 00:54:17;;;;;;;2.97;1.35;;;19.70;58.60;;;;;;5070783;28;20690;-58
2023/04/15 00:56:47;;;;;;;3.03;1.50;;;19.70;58.60;;;;;;5070858;28;20348;-58
2023/04/15 00:59:18;;;;;;;3.65;1.50;;;19.70;58.60;;;;;;5071061;28;20241;-58
2023/04/15 01:01:50;;;;;;;4.60;1.42;;;19.70;58.60;;;;;;5071365;28;20195;-58
2023/04/15 01:04:21;;;;;;;3.88;1.60;;;19.70;58.60;;;;;;5074907;28;20217;-58
2023/04/15 01:06:53;;;;;;;3.25;1.80;;;19.70;58.60;;;;;;5071618;28;20237;-58
2023/04/15 01:09:24;;;;;;;3.90;1.98;;;19.70;58.60;;;;;;5073648;28;20186;-58
2023/04/15 01:11:55;;;;;;;6.22;1.70;;;19.80;58.70;;;;;;5087094;28;20291;-58
2023/04/15 01:14:26;;;;;;;3.17;1.58;;;19.80;58.70;;;;;;5091168;28;20685;-58
2023/04/15 01:16:57;;;;;;;3.25;1.70;;;19.80;58.70;;;;;;5090507;28;20289;-58
2023/04/15 01:19:28;;;;;;;4.20;1.65;;;19.80;58.70;;;;;;5093847;28;20194;-58
2023/04/15 01:22:00;;;;;;;2.72;1.65;;;19.80;58.60;;;;;;5087418;28;20230;-58
2023/04/15 01:24:34;;;;;;;5.57;1.85;;;19.80;58.70;;;;;;5082763;28;20213;-58
2023/04/15 01:27:07;;;;;;;4.15;1.63;;;19.80;58.70;;;;;;5089917;28;20634;-58
2023/04/15 01:29:42;;;;;;;4.05;1.90;;;19.80;58.60;;;;;;5090675;28;20281;-58
2023/04/15 01:32:13;;;;;;;4.13;2.00;;;19.80;58.60;;;;;;5073660;28;20560;-58
2023/04/15 01:34:43;;;;;;;4.68;2.00;;;19.90;58.60;;;;;;5088353;28;20195;-58
2023/04/15 01:37:15;;;;;;;3.78;1.80;;;19.90;58.60;;;;;;5094895;28;20205;-58
2023/04/15 01:39:45;;;;;;;4.88;2.10;;;19.90;58.70;;;;;;5108229;28;20197;-58
2023/04/15 01:42:18;;;;;;;3.70;1.77;;;19.90;58.70;;;;;;5114925;28;20201;-58
2023/04/15 01:44:48;;;;;;;5.97;1.70;;;19.90;58.80;;;;;;5113804;28;20326;-58
2023/04/15 01:47:19;;;;;;;4.75;2.00;;;19.90;58.80;;;;;;5074731;27;20210;-58
2023/04/15 01:49:50;;;;;;;2.97;2.08;;;19.90;58.80;;;;;;5089110;28;20190;-58
2023/04/15 01:52:20;;;;;;;5.10;1.90;;;20.00;58.90;;;;;;5093699;28;20226;-58
2023/04/15 01:54:51;;;;;;;5.22;2.03;;;19.90;58.80;;;;;;5094180;28;20194;-58
2023/04/15 01:57:24;;;;;;;4.35;2.08;;;20.00;58.90;;;;;;5093297;28;20199;-57
2023/04/15 01:59:54;;;;;;;5.20;2.20;;;20.00;58.80;;;;;;5086021;28;20269;-57
2023/04/15 02:02:25;;;;;;;4.82;2.10;;;20.00;58.80;;;;;;5080796;28;20567;-57
2023/04/15 02:04:56;;;;;;;3.55;1.65;;;20.00;58.80;;;;;;5077141;28;20187;-57
2023/04/15 02:07:27;;;;;;;3.80;2.10;;;20.00;58.80;;;;;;5073336;28;20199;-57
2023/04/15 02:09:58;;;;;;;5.22;2.28;;;20.00;58.80;;;;;;5088448;28;20194;-57
2023/04/15 02:12:30;;;;;;;5.38;2.25;;;20.00;58.80;;;;;;5084106;28;20219;-57
2023/04/15 02:15:01;;;;;;;3.67;2.35;;;20.10;58.80;;;;;;5088174;28;20191;-58
2023/04/15 02:17:32;;;;;;;5.78;2.42;;;20.10;58.90;;;;;;5093852;28;20191;-57
2023/04/15 02:20:03;;;;;;;5.35;2.70;;;20.10;58.80;;;;;;5103679;28;20307;-57
2023/04/15 02:22:34;;;;;;;4.35;2.47;;;20.10;58.80;;;;;;5072839;28;20318;-57
2023/04/15 02:25:05;;;;;;;5.65;3.15;;;20.10;58.90;;;;;;5080538;28;20260;-57
2023/04/15 02:27:38;;;;;;;7.97;4.30;;;20.10;58.90;;;;;;5072797;28;20206;-57
2023/04/15 02:30:10;;;;;;;10.27;5.13;;;20.10;58.90;;;;;;5087883;28;20190;-57
2023/04/15 02:32:42;;;;;;;8.48;4.25;;;20.10;58.90;;;;;;5093152;28;20226;-57
2023/04/15 02:35:13;;;;;;;11.63;6.55;;;20.20;58.90;;;;;;5092629;28;20723;-58
2023/04/15 02:37:44;;;;;;;8.25;4.95;;;20.20;58.90;;;;;;5092487;28;20198;-58
2023/04/15 02:40:15;;;;;;;10.45;5.97;;;20.20;59.00;;;;;;5092841;28;20193;-57
2023/04/15 02:42:48;;;;;;;12.63;6.63;;;20.20;58.90;;;;;;5092111;28;20206;-57
2023/04/15 02:45:22;;;;;;;11.35;6.03;;;20.20;59.00;;;;;;5093964;28;20211;-57
2023/04/15 02:47:53;;;;;;;9.00;5.60;;;20.20;59.00;;;;;;5093006;28;20920;-58
2023/04/15 02:50:24;;;;;;;11.43;6.03;;;20.30;58.90;;;;;;5092678;28;20251;-58
2023/04/15 02:52:55;;;;;;;10.60;6.28;;;20.30;59.00;;;;;;5092656;28;20318;-58
2023/04/15 02:55:25;;;;;;;12.18;6.03;;;20.30;59.20;;;;;;5092865;28;20194;-58
2023/04/15 02:57:59;;;;;;;10.23;5.90;;;20.30;58.90;;;;;;5090848;28;20259;-57
2023/04/15 03:00:29;;;;;;;10.75;5.70;;;20.30;58.90;;;;;;5084619;28;20191;-56
2023/04/15 03:03:03;;;;;;;9.77;5.57;;;20.30;58.90;;;;;;5081750;28;20751;-58
2023/04/15 03:05:34;;;;;;;10.48;5.55;;;20.30;58.90;;;;;;5072184;28;20202;-58
2023/04/15 03:08:05;;;;;;;11.35;5.65;;;20.30;58.90;;;;;;5072813;28;20199;-58
2023/04/15 03:10:36;;;;;;;8.68;5.43;;;20.40;59.00;;;;;;5072452;28;20201;-58
2023/04/15 03:13:08;;;;;;;9.88;5.32;;;20.40;59.00;;;;;;5072531;28;20678;-58
2023/04/15 03:15:39;;;;;;;9.90;5.13;;;20.40;59.00;;;;;;5078681;28;20198;-58
2023/04/15 03:18:09;;;;;;;9.65;4.90;;;20.40;59.00;;;;;;5093165;28;20198;-58
2023/04/15 03:20:40;;;;;;;10.48;4.50;;;20.40;58.90;;;;;;5089680;28;20193;-58
2023/04/15 03:23:11;;;;;;;10.20;5.45;;;20.50;58.90;;;;;;5073002;28;20263;-58
2023/04/15 03:25:41;;;;;;;12.38;4.85;;;20.40;58.90;;;;;;5091979;28;20201;-58
2023/04/15 03:28:14;;;;;;;8.25;4.93;;;20.40;58.80;;;;;;5092802;28;20205;-58
2023/04/15 03:30:44;;;;;;;8.43;4.55;;;20.40;58.80;;;;;;5092869;28;20193;-58
2023/04/15 03:33:15;;;;;;;10.93;4.35;;;20.50;58.90;;;;;;5092364;28;20214;-58
2023/04/15 03:35:46;;;;;;;8.40;4.38;;;20.50;58.80;;;;;;5092778;28;20712;-58
2023/04/15 03:38:16;;;;;;;7.75;4.50;;;20.50;58.80;;;;;;5092563;28;20194;-58
2023/04/15 03:40:48;;;;;;;9.93;4.75;;;20.50;58.80;;;;;;5091660;28;20197;-58
2023/04/15 03:43:20;;;;;;;7.40;3.97;;;20.50;58.80;;;;;;5092483;28;20249;-58
2023/04/15 03:45:51;;;;;;;7.22;4.07;;;20.50;58.70;;;;;;5084979;28;20207;-58
2023/04/15 03:48:22;;;;;;;8.48;4.50;;;20.50;58.80;;;;;;5072173;28;20190;-58
2023/04/15 03:50:52;;;;;;;8.93;4.30;;;20.50;58.80;;;;;;5072279;28;20240;-58
2023/04/15 03:53:24;;;;;;;7.45;3.83;;;20.60;58.80;;;;;;5071733;28;20210;-58
2023/04/15 03:55:55;;;;;;;8.15;4.25;;;20.60;58.80;;;;;;5071316;28;20663;-58
2023/04/15 03:58:27;;;;;;;6.45;3.20;;;20.60;58.70;;;;;;5071914;28;20202;-58
2023/04/15 04:00:58;;;;;;;8.65;4.75;;;20.60;58.70;;;;;;5071797;28;20194;-58
2023/04/15 04:03:28;;;;;;;8.48;3.92;;;20.60;58.70;;;;;;5071247;28;20618;-58
2023/04/15 04:05:59;;;;;;;10.82;5.13;;;20.60;58.60;;;;;;5071241;28;20199;-58
2023/04/15 04:08:30;;;;;;;8.35;5.28;;;20.60;58.70;;;;;;5071397;28;20199;-58
2023/04/15 04:11:00;;;;;;;11.35;4.97;;;20.60;58.60;;;;;;5071344;28;20202;-58
2023/04/15 04:13:33;;;;;;;9.40;5.40;;;20.70;58.60;;;;;;5071476;28;20211;-58
2023/04/15 04:16:04;;;;;;;9.20;5.97;;;20.70;58.60;;;;;;5071171;28;20203;-58
2023/04/15 04:18:35;;;;;;;14.20;6.93;;;20.70;58.60;;;;;;5071256;28;20205;-58
2023/04/15 04:21:05;;;;;;;14.38;7.85;;;20.70;58.60;;;;;;5071173;28;20206;-58
2023/04/15 04:23:37;;;;;;;12.85;7.95;;;20.70;58.60;;;;;;5071056;28;20218;-58
2023/04/15 04:26:07;;;;;;;15.38;7.57;;;20.70;58.50;;;;;;5070966;28;20206;-58
2023/04/15 04:28:40;;;;;;;13.38;8.38;;;20.80;58.60;;;;;;5071056;28;20222;-58
2023/04/15 04:31:11;;;;;;;12.73;7.95;;;20.80;58.50;;;;;;5071321;28;20655;-58
2023/04/15 04:33:42;;;;;;;11.45;7.22;;;20.90;58.50;;;;;;5070774;28;20218;-58
2023/04/15 04:36:12;;;;;;;11.60;6.82;;;20.90;58.50;;;;;;5086776;28;20190;-58
2023/04/15 04:38:43;;;;;;;10.90;6.30;;;20.90;58.50;;;;;;5071182;28;20187;-58
2023/04/15 04:41:13;;;;;;;11.05;6.55;;;20.80;58.40;;;;;;5070856;28;20201;-58
2023/04/15 04:43:46;;;;;;;10.77;6.55;;;20.90;58.30;;;;;;5070282;28;20229;-58
2023/04/15 04:46:16;;;;;;;9.65;6.70;;;20.90;58.20;;;;;;5070730;28;20788;-58
2023/04/15 04:48:47;;;;;;;10.63;6.20;;;20.90;58.20;;;;;;5070511;28;20202;-58
2023/04/15 04:51:18;;;;;;;12.07;6.50;;;20.90;58.20;;;;;;5070893;28;20199;-58
2023/04/15 04:53:48;;;;;;;11.23;6.25;;;20.90;58.10;;;;;;5077397;28;20222;-58
2023/04/15 04:56:19;;;;;;;9.88;6.43;;;20.90;58.10;;;;;;5077136;28;20194;-58
2023/04/15 04:58:51;;;;;;;10.88;5.60;;;20.90;58.10;;;;;;5091223;28;21050;-58
2023/04/15 05:01:22;;;;;;;8.95;5.68;;;20.90;58.10;;;;;;5098363;28;20657;-58
2023/04/15 05:03:53;;;;;;;9.07;5.40;;;20.90;58.10;;;;;;5097327;28;20631;-58
2023/04/15 05:06:23;;;;;;;9.63;5.47;;;20.90;58.10;;;;;;5096517;28;20193;-58
2023/04/15 05:08:55;;;;;;;8.73;5.72;;;20.90;58.10;;;;;;5098288;28;20201;-58
2023/04/15 05:11:26;;;;;;;8.30;5.35;;;20.90;58.10;;;;;;5097951;28;20204;-59
2023/04/15 05:14:00;;;;;;;7.90;4.85;;;20.90;58.10;;;;;;5097945;28;20263;-58
2023/04/15 05:16:31;;;;;;;8.48;5.25;;;20.90;58.10;;;;;;5097774;28;20548;-58
2023/04/15 05:19:01;;;;;;;10.27;5.80;;;21.00;58.10;;;;;;5098185;28;20198;-58
2023/04/15 05:21:32;;;;;;;7.40;5.30;;;20.90;58.00;;;;;;5094766;28;20194;-58
2023/04/15 05:24:03;;;;;;;7.30;4.63;;;20.90;58.00;;;;;;5097128;28;20218;-58
2023/04/15 05:26:35;;;;;;;7.57;4.63;;;20.90;57.90;;;;;;5095255;28;20202;-58
2023/04/15 05:29:07;;;;;;;7.70;4.55;;;21.00;57.90;;;;;;5097428;28;20194;-58
2023/04/15 05:31:38;;;;;;;8.20;5.25;;;21.00;57.90;;;;;;5097775;28;20194;-58
2023/04/15 05:34:09;;;;;;;9.75;4.68;;;20.90;57.80;;;;;;5097254;28;20214;-58
2023/04/15 05:36:39;;;;;;;9.80;5.03;;;20.90;57.70;;;;;;5097724;28;20596;-59
2023/04/15 05:39:10;;;;;;;8.05;4.70;;;20.90;57.70;;;;;;5097277;28;20670;-58
2023/04/15 05:41:41;;;;;;;7.35;4.63;;;20.90;57.70;;;;;;5097175;28;20198;-58
2023/04/15 05:44:13;;;;;;;9.50;4.97;;;20.90;57.70;;;;;;5097587;28;20229;-58
2023/04/15 05:46:44;;;;;;;6.75;4.35;;;20.90;57.70;;;;;;5082771;28;20808;-58
2023/04/15 05:49:15;;;;;;;8.43;4.57;;;20.90;57.80;;;;;;5077739;28;20199;-59
2023/04/15 05:51:46;;;;;;;7.40;4.70;;;20.90;57.70;;;;;;5078765;28;20198;-58
2023/04/15 05:54:17;;;;;;;7.65;4.35;;;20.90;57.70;;;;;;5097444;28;20221;-58
2023/04/15 05:56:48;;;;;;;8.80;4.97;;;20.90;57.70;;;;;;5096729;28;20198;-58
2023/04/15 05:59:20;;;;;;;5.75;4.15;;;20.90;57.60;;;;;;5097353;28;20194;-58
2023/04/15 06:01:52;;;;;;;7.43;4.30;;;20.80;57.60;;;;;;5097520;28;20202;-58
2023/04/15 06:04:22;;;;;;;7.47;4.43;;;20.80;57.50;;;;;;5094336;28;20246;-58
2023/04/15 06:06:53;;;;;;;7.55;4.22;;;20.80;57.50;;;;;;5094269;28;20278;-58
2023/04/15 06:09:24;;;;;;;6.65;4.22;;;20.80;57.60;;;;;;5093861;28;20198;-58
2023/04/15 06:11:55;;;;;;;8.35;4.45;;;20.80;57.50;;;;;;5093452;28;20213;-59
2023/04/15 06:14:28;;;;;;;7.88;4.22;;;20.80;57.60;;;;;;5093371;28;20217;-58
2023/04/15 06:16:58;;;;;;;6.60;4.10;;;20.80;57.50;;;;;;5093732;28;20205;-58
2023/04/15 06:19:29;;;;;;;7.10;4.25;;;20.80;57.50;;;;;;5094161;28;20197;-58
2023/04/15 06:22:00;;;;;;;7.72;3.88;;;20.80;57.50;;;;;;5093774;28;20201;-58
2023/04/15 06:24:31;;;;;;;6.50;4.00;;;20.70;57.50;;;;;;5093603;28;20219;-58
2023/04/15 06:27:02;;;;;;;6.43;4.38;;;20.70;57.60;;;;;;5093346;28;20198;-59
2023/04/15 06:29:35;;;;;;;7.65;4.20;;;20.70;57.50;;;;;;5093449;28;20635;-58
2023/04/15 06:32:05;;;;;;;6.55;3.80;;;20.80;57.60;;;;;;5093605;28;20650;-58
2023/04/15 06:34:36;;;;;;;6.93;4.20;;;20.70;57.50;;;;;;5093788;28;20524;-58
2023/04/15 06:37:08;;;;;;;5.07;4.10;;;20.70;57.50;;;;;;5093863;28;20198;-58
2023/04/15 06:39:39;;;;;;;6.97;4.43;;;20.70;57.60;;;;;;5093644;28;20202;-58
2023/04/15 06:42:10;;;;;;;5.28;4.15;;;20.70;57.50;;;;;;5093551;28;20198;-58
2023/04/15 06:44:42;;;;;;;5.95;3.90;;;20.70;57.50;;;;;;5093497;28;20244;-59
2023/04/15 06:47:13;;;;;;;6.50;4.13;;;20.70;57.50;;;;;;5093445;28;20202;-59
2023/04/15 06:49:44;;;;;;;6.25;4.22;;;20.60;57.40;;;;;;5092767;28;20633;-58
2023/04/15 06:52:15;;;;;;;5.35;3.88;;;20.60;57.40;;;;;;5092737;28;20703;-58
2023/04/15 06:54:46;;;;;;;4.93;3.50;;;20.60;57.40;;;;;;5092333;28;20225;-58
2023/04/15 06:57:16;;;;;;;6.07;4.10;;;20.60;57.40;;;;;;5073295;28;20194;-59
2023/04/15 06:59:49;;;;;;;6.32;3.95;;;20.60;57.40;;;;;;5072875;28;20588;-59
2023/04/15 07:02:19;;;;;;;5.05;3.40;;;20.60;57.40;;;;;;5072883;28;20568;-59
2023/04/15 07:04:50;;;;;;;5.38;3.85;;;20.60;57.40;;;;;;5072695;28;20198;-58
2023/04/15 07:07:21;;;;;;;5.30;3.70;;;20.50;57.40;;;;;;5072743;28;20202;-58
2023/04/15 07:09:52;;;;;;;5.82;3.85;;;20.50;57.40;;;;;;5072338;28;20210;-58
2023/04/15 07:12:23;;;;;;;5.75;3.42;;;20.50;57.40;;;;;;5071516;28;20238;-58
2023/04/15 07:14:55;;;;;;;5.22;3.78;;;20.50;57.40;;;;;;5071704;28;20195;-58
2023/04/15 07:17:26;;;;;;;4.78;3.63;;;20.50;57.40;;;;;;5071929;28;20195;-58
2023/04/15 07:19:56;;;;;;;4.63;2.88;;;20.50;57.40;;;;;;5072140;28;20592;-58
2023/04/15 07:22:28;;;;;;;5.85;3.92;;;20.50;57.40;;;;;;5072176;28;20206;-58
2023/04/15 07:24:58;;;;;;;5.95;3.72;;;20.40;57.30;;;;;;5072691;28;20195;-58
2023/04/15 07:27:29;;;;;;;6.22;4.00;;;20.50;57.40;;;;;;5072245;28;20199;-58
2023/04/15 07:30:02;;;;;;;5.97;3.60;;;20.50;57.40;;;;;;5080603;28;20190;-58
2023/04/15 07:32:33;;;;;;;5.97;3.70;;;20.40;57.40;;;;;;5092230;28;20225;-58
2023/04/15 07:35:03;;;;;;;5.32;3.65;;;20.40;57.40;;;;;;5089349;28;20186;-58
2023/04/15 07:37:34;;;;;;;5.90;3.50;;;20.40;57.40;;;;;;5091844;28;20194;-58
2023/04/15 07:40:06;;;;;;;5.05;3.33;;;20.40;57.40;;;;;;5072335;28;20585;-58
2023/04/15 07:42:37;;;;;;;4.43;3.60;;;20.30;57.40;;;;;;5083177;28;20224;-58
2023/04/15 07:45:11;;;;;;;5.05;3.22;;;20.40;57.40;;;;;;5090570;28;20206;-58
2023/04/15 07:47:42;;;;;;;4.30;3.17;;;20.30;58.00;;;;;;5072001;28;20202;-58
2023/04/15 07:50:13;;;;;;;5.25;3.35;;;20.30;57.40;;;;;;5072355;28;20195;-58
2023/04/15 07:52:44;;;;;;;6.07;3.55;;;20.30;57.40;;;;;;5072165;28;20226;-58
2023/04/15 07:55:18;;;;;;;5.70;3.35;;;20.30;57.50;;;;;;5072065;28;20199;-58
2023/04/15 07:57:48;;;;;;;5.22;3.90;;;20.30;57.40;;;;;;5072047;28;20195;-58
2023/04/15 08:00:21;;;;;;;3.95;3.13;;;20.30;57.40;;;;;;5071793;28;20249;-58
2023/04/15 08:02:52;;;;;;;5.40;3.53;;;20.30;57.40;;;;;;5070969;28;20686;-58
2023/04/15 08:05:23;;;;;;;5.50;3.63;;;20.30;57.40;;;;;;5070931;28;20282;-58
2023/04/15 08:07:54;;;;;;;4.65;3.20;;;20.20;57.40;;;;;;5071409;28;20682;-58
2023/04/15 08:10:24;;;;;;;4.72;3.00;;;20.20;57.40;;;;;;5071243;28;20240;-58
2023/04/15 08:12:56;;;;;;;4.30;3.08;;;20.20;57.40;;;;;;5071450;28;20679;-58
2023/04/15 08:15:29;;;;;;;4.28;2.65;;;20.20;57.40;;;;;;5071636;28;20202;-59
2023/04/15 08:18:00;;;;;;;5.40;3.53;;;20.20;57.50;;;;;;5071536;28;20615;-58
2023/04/15 08:20:30;;;;;;;4.95;3.13;;;20.20;57.40;;;;;;5071464;28;20248;-58
2023/04/15 08:23:01;;;;;;;3.92;3.05;;;20.10;57.40;;;;;;5082628;28;20583;-58
2023/04/15 08:25:32;;;;;;;4.03;2.67;;;20.10;57.40;;;;;;5091980;28;20190;-58
2023/04/15 08:28:08;;;;;;;4.90;3.33;;;20.10;57.40;;;;;;5091647;28;20195;-58
2023/04/15 08:30:40;;;;;;;4.40;3.03;;;20.10;58.00;;;;;;5091783;28;20277;-58
2023/04/15 08:33:11;;;;;;;5.32;3.33;;;20.10;57.40;;;;;;5092128;28;20234;-59
2023/04/15 08:35:42;;;;;;;4.45;2.90;;;20.10;57.40;;;;;;5091702;28;20245;-58
2023/04/15 08:38:13;;;;;;;4.20;3.15;;;20.10;57.40;;;;;;5091859;28;20239;-58
2023/04/15 08:40:45;;;;;;;3.60;2.83;;;20.10;57.40;;;;;;5091648;28;20190;-58
2023/04/15 08:43:25;;;;;;;5.22;3.33;;;20.10;57.40;;;;;;5078719;28;20717;-58
2023/04/15 08:46:00;;;;;;;3.88;3.13;;;20.10;57.40;;;;;;5078840;28;20202;-58
2023/04/15 08:48:33;;;;;;;4.05;3.45;;;20.10;57.40;;;;;;5091020;28;20280;-58
2023/04/15 08:51:04;;;;;;;4.30;3.30;;;20.00;57.40;;;;;;5090923;28;20685;-58
2023/04/15 08:53:35;;;;;;;4.50;3.47;;;20.00;57.40;;;;;;5091078;28;20237;-59
2023/04/15 08:56:09;;;;;;;5.13;3.72;;;20.00;57.40;;;;;;5091534;28;20194;-58
2023/04/15 08:58:39;;;;;;;4.65;3.60;;;20.00;57.40;;;;;;5090975;28;20194;-59
2023/04/15 09:01:13;;;;;;;5.13;3.40;;;20.00;57.40;;;;;;5091683;28;20271;-58
2023/04/15 09:03:45;;;;;;;5.88;3.63;;;20.00;57.50;;;;;;5091261;28;20256;-58
2023/04/15 09:06:17;;;;;;;5.05;3.70;;;20.10;57.50;;;;;;5091519;28;20273;-59
2023/04/15 09:08:48;;;;;;;5.25;3.20;;;20.00;57.50;;;;;;5090762;28;20247;-58
2023/04/15 09:11:19;;;;;;;5.30;3.40;;;20.00;57.50;;;;;;5090896;28;20223;-58
2023/04/15 09:13:50;;;;;;;4.05;3.20;;;20.00;57.50;;;;;;5090964;28;20234;-58
2023/04/15 09:16:23;;;;;;;5.40;3.65;;;20.00;57.50;;;;;;5091060;28;20194;-58
2023/04/15 09:18:53;;;;;;;4.30;3.35;;;20.00;57.40;;;;;;5091390;28;20504;-58
2023/04/15 09:21:25;;;;;;;5.82;3.67;;;20.00;57.50;;;;;;5086306;28;20190;-58
2023/04/15 09:23:59;;;;;;;3.97;3.10;;;20.00;57.50;;;;;;5070441;28;20634;-58
2023/04/15 09:26:37;;;;;;;4.55;3.30;;;20.00;57.50;;;;;;5070516;28;20214;-58
2023/04/15 09:29:09;;;;;;;4.88;3.55;;;19.90;57.40;;;;;;5070378;28;20194;-58
2023/04/15 09:31:41;;;;;;;4.75;3.30;;;19.90;57.50;;;;;;5070111;28;20210;-58
2023/04/15 09:34:12;;;;;;;4.60;3.63;;;19.90;57.40;;;;;;5072557;28;20222;-58
2023/04/15 09:36:56;;;;;;;5.53;3.28;;;19.90;57.40;;;;;;5071090;28;20195;-59
2023/04/15 09:39:27;;;;;;;5.05;3.72;;;19.90;57.50;;;;;;5072076;28;20203;-58
2023/04/15 09:42:10;;;;;;;4.93;3.28;;;19.90;57.50;;;;;;5073447;28;20199;-58
2023/04/15 09:44:40;;;;;;;4.82;3.22;;;19.90;57.50;;;;;;5074276;28;20217;-58
2023/04/15 09:47:28;;;;;;;4.55;3.08;;;19.90;57.50;;;;;;5092963;28;20194;-58
2023/04/15 09:50:02;;;;;;;4.05;3.20;;;19.90;57.50;;;;;;5094387;28;20206;-58
2023/04/15 09:52:33;;;;;;;5.43;3.40;;;19.90;57.50;;;;;;5093654;28;20187;-58
2023/04/15 09:55:04;;;;;;;4.10;3.17;;;19.90;57.50;;;;;;5094442;28;20222;-58
2023/04/15 09:57:40;;;;;;;4.60;3.17;;;19.90;57.50;;;;;;5093677;28;20201;-58
2023/04/15 10:00:11;;;;;;;4.18;2.72;;;19.80;57.50;;;;;;5093825;28;20286;-58
2023/04/15 10:02:44;;;;;;;5.03;3.45;;;19.80;57.50;;;;;;5094069;28;20256;-58
2023/04/15 10:05:17;;;;;;;4.70;3.30;;;19.80;57.50;;;;;;5094401;28;20202;-58
2023/04/15 10:07:48;;;;;;;3.47;2.97;;;19.80;57.50;;;;;;5094144;28;20673;-58
2023/04/15 10:10:19;;;;;;;3.58;2.92;;;19.80;57.50;;;;;;5092768;28;20198;-59
2023/04/15 10:12:51;;;;;;;5.00;3.03;;;19.90;57.50;;;;;;5093389;28;20218;-58
2023/04/15 10:15:22;;;;;;;4.07;3.13;;;19.90;57.50;;;;;;5094050;28;20214;-58
2023/04/15 10:17:57;;;;;;;3.83;2.85;;;19.80;57.50;;;;;;5094008;28;20198;-58
2023/04/15 10:20:29;;;;;;;4.28;3.22;;;19.80;57.50;;;;;;5093781;28;20262;-58
2023/04/15 10:23:00;;;;;;;3.55;3.00;;;19.80;57.50;;;;;;5093341;28;20218;-59
2023/04/15 10:25:32;;;;;;;4.35;3.17;;;19.80;57.50;;;;;;5093448;28;20566;-58
2023/04/15 10:28:04;;;;;;;4.30;3.00;;;19.80;57.50;;;;;;5093574;28;20224;-58
2023/04/15 10:30:36;;;;;;;4.03;2.92;;;19.80;57.50;;;;;;5087384;28;20252;-58
2023/04/15 10:33:12;;;;;;;4.93;3.45;;;19.80;57.50;;;;;;5073197;28;20222;-58
2023/04/15 10:35:43;;;;;;;4.00;3.00;;;19.80;57.50;;;;;;5073845;28;20205;-58
2023/04/15 10:38:35;;;;;;;3.63;2.80;;;19.80;57.50;;;;;;5073533;28;20609;-58
2023/04/15 10:41:26;;;;;;;4.00;2.83;;;19.80;57.50;;;;;;5073223;28;20650;-58
2023/04/15 10:44:02;;;;;;;4.63;3.15;;;19.80;57.50;;;;;;5072368;28;20234;-58
2023/04/15 10:46:39;;;;;;;3.38;2.83;;;19.70;57.50;;;;;;5072920;28;20209;-58
2023/04/15 10:49:15;;;;;;;3.97;3.25;;;19.80;57.50;;;;;;5073029;28;20872;-58
2023/04/15 10:51:47;;;;;;;3.92;2.97;;;19.80;57.50;;;;;;5073453;28;20248;-58
2023/04/15 10:54:32;;;;;;;4.18;3.58;;;19.80;57.60;;;;;;5072577;28;20223;-58
2023/04/15 10:57:15;;;;;;;5.15;3.08;;;19.70;57.50;;;;;;5072289;28;20195;-58
2023/04/15 11:00:05;;;;;;;3.63;2.90;;;19.70;58.10;;;;;;5079136;28;20190;-58
2023/04/15 11:02:44;;;;;;;4.15;2.88;;;19.70;57.60;;;;;;5092900;28;20225;-58
2023/04/15 11:05:17;;;;;;;4.20;3.03;;;19.70;57.50;;;;;;5093161;28;20206;-58
2023/04/15 11:07:58;;;;;;;4.30;3.20;;;19.70;57.50;;;;;;5093026;28;20425;-58
2023/04/15 11:10:58;;;;;;;3.67;2.80;;;19.70;57.50;;;;;;5092625;28;20646;-57
2023/04/15 11:13:31;;;;;;;4.07;3.10;;;19.70;57.50;;;;;;5081140;28;20214;-58
2023/04/15 11:16:03;;;;;;;4.32;3.15;;;19.70;57.50;;;;;;5078920;28;20203;-58
2023/04/15 11:18:37;;;;;;;3.95;2.95;;;19.70;57.50;;;;;;5079791;28;20189;-58
2023/04/15 11:21:11;;;;;;;3.90;2.53;;;19.70;57.50;;;;;;5088096;28;20198;-58
2023/04/15 11:23:45;;;;;;;4.05;3.25;;;19.70;57.50;;;;;;5084243;28;20218;-58
2023/04/15 11:26:16;;;;;;;3.58;2.92;;;19.70;57.60;;;;;;5086680;28;20197;-58
2023/04/15 11:28:47;;;;;;;4.03;2.80;;;19.70;57.60;;;;;;5085305;28;20199;-58
2023/04/15 11:31:19;;;;;;;3.08;2.75;;;19.70;57.60;;;;;;5071156;28;20229;-58
2023/04/15 11:33:57;;;;;;;3.05;2.67;;;19.70;57.60;;;;;;5080050;28;20226;-58
2023/04/15 11:36:33;;;;;;;3.88;2.63;;;19.70;57.60;;;;;;5091694;28;20197;-58
2023/04/15 11:39:03;;;;;;;4.20;2.75;;;19.70;57.60;;;;;;5091737;28;20198;-58
2023/04/15 11:41:34;;;;;;;4.25;3.00;;;19.60;57.50;;;;;;5087202;28;20190;-58
2023/04/15 11:44:04;;;;;;;4.72;3.00;;;19.60;57.50;;;;;;5088603;28;20592;-58
2023/04/15 11:46:35;;;;;;;4.43;2.78;;;19.70;57.60;;;;;;5091173;28;20210;-57
2023/04/15 11:49:06;;;;;;;3.88;2.58;;;19.60;57.50;;;;;;5091817;28;20707;-58
2023/04/15 11:51:39;;;;;;;3.80;3.25;;;19.60;57.50;;;;;;5091872;28;20198;-58
2023/04/15 11:54:09;;;;;;;4.30;2.85;;;19.60;57.50;;;;;;5091683;28;20225;-58
2023/04/15 11:56:40;;;;;;;3.97;2.65;;;19.60;57.50;;;;;;5091872;28;20190;-58
2023/04/15 11:59:10;;;;;;;3.65;2.58;;;19.60;57.50;;;;;;5099361;28;20196;-58
2023/04/15 12:01:42;;;;;;;2.83;2.35;;;19.60;57.50;;;;;;5111254;28;20200;-58
2023/04/15 12:04:15;;;;;;;3.38;2.35;;;19.60;57.50;;;;;;5101095;28;20360;-57
2023/04/15 12:06:48;;;;;;;2.72;2.30;;;19.60;57.60;;;;;;5070400;28;20191;-58
2023/04/15 12:09:19;;;;;;;3.33;2.33;;;19.60;57.60;;;;;;5080687;28;20194;-58
2023/04/15 12:11:51;;;;;;;3.92;2.70;;;19.60;57.50;;;;;;5091122;28;20198;-58
2023/04/15 12:14:28;;;;;;;3.50;2.63;;;19.60;57.50;;;;;;5090679;28;20408;-58
2023/04/15 12:17:00;;;;;;;4.13;2.65;;;19.60;57.50;;;;;;5091073;28;20197;-58
2023/04/15 12:19:33;;;;;;;3.03;2.45;;;19.60;57.50;;;;;;5087022;28;20202;-58
2023/04/15 12:22:07;;;;;;;3.67;2.85;;;19.60;57.50;;;;;;5091374;28;20270;-58
2023/04/15 12:24:38;;;;;;;3.20;2.70;;;19.60;57.60;;;;;;5101943;28;20256;-58
2023/04/15 12:27:12;;;;;;;3.38;2.47;;;19.60;57.50;;;;;;5110715;28;20656;-58
2023/04/15 12:29:44;;;;;;;3.55;2.13;;;19.60;57.50;;;;;;5110232;28;20185;-58
2023/04/15 12:32:15;;;;;;;3.53;2.75;;;19.60;57.50;;;;;;5083804;28;20191;-58
2023/04/15 12:34:51;;;;;;;3.05;2.33;;;19.50;57.50;;;;;;5083963;28;20221;-58
2023/04/15 12:37:24;;;;;;;3.08;2.65;;;19.50;57.50;;;;;;5090917;28;20745;-58
2023/04/15 12:39:55;;;;;;;3.60;2.72;;;19.50;57.50;;;;;;5091094;28;20527;-58
2023/04/15 12:42:26;;;;;;;4.22;2.90;;;19.50;58.10;;;;;;5090596;28;20194;-58
2023/04/15 12:44:56;;;;;;;3.67;2.63;;;19.50;57.50;;;;;;5089850;28;20198;-58
2023/04/15 12:47:27;;;;;;;2.80;2.35;;;19.50;57.50;;;;;;5070833;28;20194;-59
2023/04/15 12:49:59;;;;;;;2.83;2.28;;;19.50;57.50;;;;;;5078320;28;20583;-58
2023/04/15 12:52:31;;;;;;;3.03;2.28;;;19.50;57.50;;;;;;5080805;28;20254;-58
2023/04/15 12:55:02;;;;;;;2.45;2.08;;;19.40;58.10;;;;;;5079266;28;20218;-58
2023/04/15 12:57:33;;;;;;;2.47;2.28;;;19.50;57.50;;;;;;5079564;28;20197;-58
2023/04/15 13:00:05;;;;;;;3.25;2.38;;;19.50;57.50;;;;;;5081287;28;20190;-58
2023/04/15 13:02:36;;;;;;;2.90;2.05;;;19.40;57.40;;;;;;5081076;28;20218;-58
2023/04/15 13:05:07;;;;;;;2.65;2.10;;;19.40;57.40;;;;;;5089454;28;20248;-59
2023/04/15 13:07:39;;;;;;;2.78;2.10;;;19.40;57.50;;;;;;5090167;28;20189;-59
2023/04/15 13:10:11;;;;;;;3.45;2.28;;;19.40;57.40;;;;;;5088529;28;20197;-59